Aérodrome :
LOGIN :

S'inscrire | Disclaimer

   EN    FR    IT 

 










Légende :    VFR   VFR Marginal   IFR   IFR Intensif   IFR Très Intensif
Visi : 
Plafond : 
>= 8 km
>= 3000ft
5 à 8 km
1000 à 3000 ft
1500m à 5 km
500 à 1000 ft
800 à 1500m
200 à 500 ft
< 800m
< 200 ft
Symboles :   Orages  Brouillard  Fortes neiges  Fortes précipitations  Vent > 20 kt
SIGMETs :   Divers  Orages  Givrage  Turbulence  Onde Orograph.  Cendres Volcan.







- Altitude de l'aérodrome : 1187 ft


LIBV - Gioia del Colle Bari

DERNIER METAR :
  • 230855Z 01010KT 9000 NSC 26/20 Q1019 RMK BKN SCT090 SCT120 VIS MIN 9000 WIND THR32 01010KT WIND THR14 01009KT BLU

METARs EXPIRÉS :
  • 230755Z 36008KT 8000 NSC 26/20 Q1019 RMK BKN SCT100 SCT200 VIS MIN 8000 WIND THR32 36009KT WIND THR14 36009KT BLU
  • 230655Z 35008KT 8000 NSC 25/19 Q1019 RMK BKN SCT100 BKN200 VIS MIN 8000 WIND THR32 35010KT WIND THR14 35009KT BLU

TAF TAF LIBV
Valide du 23 à 09h jusqu'au 23 à 18h UTC


230800Z 2309/2318 36008KT 9999 SCT030
Pas de NOTAMs connus pour ce terrain.



MET'MAP, la Météo Aéronautique d'un coup d'oeil ! - Copyright ORBIFLY Décembre 2007 - Disclaimer

ORBIFLY MET'MAP TEAM :

Programmation & Développement : Alexandra Zaïnal
Conception & Développement : Baudouin d'Aumeries
Co-Programmation & Développement : Marc-Olivier Méhu
Soutien technique & logistique : Manuel Goepfert

Contact : metmap@orbifly.com




SOURCES & CREDITS :

   NOAA